• Join FlightAware (Why Join?)
  • Login
  • US Flag 
12:50PM EDT


 

Airport Tracker/Info


-or-


 

Live Flight TrackerFlight Track Log ✈ AWE3434 ✈ 19-Apr-2013 ✈ KPHL - KCMH

Flight Track Log - Related Links

Times and Time Zones

All times are in EDT time to prevent confusion due to time zone crossing. See the AWE3434 flight status page for this flight to view local times or setup timezone preferences in your user account.

Time Position Orientation Groundspeed Altitude Reporting Facility
EDT Latitude Longitude Course Direction KTS MPH feet Rate Location/Type
02:11PM 39.8833 -75.2167 270° West 156 180 1,400  Level Philadelphia TRACON
02:11PM 39.8886 -75.1903 75° East 174 200 2,000 1,260 Climbing FAA TRACON SMA TRACON (SMA)
02:12PM 39.9056 -75.1464 63° Northeast 247 284 2,800 2,220 Climbing FAA TRACON SMA TRACON (SMA)
02:12PM 39.9178 -75.1153 63° Northeast 248 285 4,200 3,120 Climbing FAA TRACON SMA TRACON (SMA)
02:13PM 39.9000 -75.5776 270° West  Level FlightAware Approximate
02:13PM 39.9272 -75.0897 64° Northeast 255 293 4,900  Level FAA TRACON SMA TRACON (SMA)
02:13PM 39.9375 -75.0617 64° Northeast 273 314 5,700 3,120 Climbing FAA TRACON SMA TRACON (SMA)
02:13PM 39.9569 -75.0347 47° Northeast 298 343 7,000 3,360 Climbing FAA TRACON SMA TRACON (SMA)
02:14PM 39.9124 -75.6926 258° West  Level FlightAware Approximate
02:14PM 39.9800 -75.0239 20° North 268 308 8,000  Level FAA TRACON SMA TRACON (SMA)
02:14PM 40.0061 -75.0347 342° North 255 293 8,600 1,500 Climbing FAA TRACON SMA TRACON (SMA)
02:14PM 40.0169 -75.0578 302° West 243 280 9,000 600 Climbing FAA TRACON SMA TRACON (SMA)
02:15PM 39.9000 -75.8099 270° West  Level FlightAware Approximate
02:15PM 40.0158 -75.0828 267° West 224 258 9,000  Level FAA TRACON SMA TRACON (SMA)
02:15PM 40.0111 -75.1133 259° West 219 252 9,400 900 Climbing FAA TRACON SMA TRACON (SMA)
02:15PM 40.0069 -75.1361 257° West 219 252 9,600 720 Climbing FAA TRACON SMA TRACON (SMA)
02:16PM 39.9000 -75.9290 270° West  Level FlightAware Approximate
02:16PM 40.0025 -75.1642 258° West 247 284 9,900  Level FAA TRACON SMA TRACON (SMA)
02:16PM 39.9967 -75.1981 257° West 270 311 10,000 300 Climbing FAA TRACON SMA TRACON (SMA)
02:16PM 39.9858 -75.2214 239° Southwest 280 322 10,100  Climbing FAA TRACON SMA TRACON (SMA)
02:17PM 39.9686 -75.2433 224° Southwest 263 303 10,000 -180 Descending FAA TRACON SMA TRACON (SMA)
02:17PM 39.9414 -75.2539 197° South 256 295 10,000  Level FAA TRACON SMA TRACON (SMA)
02:17PM 39.9208 -75.2603 193° South 253 291 10,000  Level FAA TRACON SMA TRACON (SMA)
02:18PM 39.8997 -75.2681 196° South 255 293 10,000  Level FAA TRACON SMA TRACON (SMA)
02:18PM 39.8822 -75.2878 221° Southwest 245 282 10,000  Level FAA TRACON SMA TRACON (SMA)
02:18PM 39.8775 -75.3175 258° West 271 312 10,000  Level FAA TRACON SMA TRACON (SMA)
02:19PM 39.8811 -75.3494 278° West 269 310 10,000  Level FAA TRACON SMA TRACON (SMA)
02:19PM 39.8856 -75.3856 279° West 274 315 10,000  Level FAA TRACON SMA TRACON (SMA)
02:19PM 39.8894 -75.4131 280° West 278 320 10,000  Level FAA TRACON SMA TRACON (SMA)
02:20PM 39.8931 -75.4556 276° West 289 333 10,000  Level FAA TRACON SMA TRACON (SMA)
02:20PM 39.8950 -75.4903 274° West 295 339 10,000  Level FAA TRACON SMA TRACON (SMA)
02:20PM 39.8967 -75.5194 274° West 288 331 10,000 120 Level FAA TRACON SMA TRACON (SMA)
02:21PM 39.8981 -75.5539 273° West 290 334 10,100 2,160 Climbing FAA TRACON SMA TRACON (SMA)
02:21PM 39.8997 -75.5958 273° West 294 338 11,500 3,480 Climbing FAA TRACON SMA TRACON (SMA)
02:21PM 39.9014 -75.6286 274° West 295 339 12,400 3,000 Climbing FAA TRACON SMA TRACON (SMA)
02:22PM 39.9025 -75.6667 272° West 296 341 13,500 2,820 Climbing FAA TRACON SMA TRACON (SMA)
02:22PM 39.9044 -75.7025 274° West 295 339 14,300 2,280 Climbing FAA TRACON SMA TRACON (SMA)
02:22PM 39.9061 -75.7364 274° West 300 345 15,000 2,160 Climbing FAA TRACON SMA TRACON (SMA)
02:23PM 39.9075 -75.7706 273° West 304 350 15,800 2,580 Climbing FAA TRACON SMA TRACON (SMA)
02:23PM 39.9094 -75.8139 273° West 309 356 16,800 2,520 Climbing FAA TRACON SMA TRACON (SMA)
02:23PM 39.9108 -75.8483 273° West 312 359 17,500 2,100 Climbing FAA TRACON SMA TRACON (SMA)
02:24PM 39.9122 -75.8756 274° West 315 362 18,200 2,040 Climbing FAA TRACON SMA TRACON (SMA)
02:25PM 39.9250 -76.0844 275° West 332 382 21,600 1,980 Climbing New York Center
02:26PM 39.9275 -76.2147 271° West 345 397 23,600 1,920 Climbing New York Center
02:27PM 39.9297 -76.3422 271° West 350 403 25,500 1,620 Climbing New York Center
02:28PM 39.9339 -76.4725 272° West 360 414 26,900 1,320 Climbing New York Center
02:29PM 39.9400 -76.6056 273° West 365 420 28,200 1,020 Climbing New York Center
02:31PM 39.9460 -76.7504 273° West  Level FlightAware Approximate
02:31PM 39.9492 -76.8800 273° West 384 442 30,000  Level New York Center
02:32PM 39.9542 -77.0214 273° West 389 448 30,000  Level New York Center
02:33PM 39.9572 -77.1597 272° West 389 448 30,000  Level New York Center
02:34PM 39.9642 -77.2986 274° West 389 448 30,000  Level New York Center
02:36PM 39.9739 -77.5975 273° West 380 437 30,000  Level Cleveland Center
02:37PM 39.9772 -77.7356 272° West 385 443 30,000  Level Cleveland Center
02:38PM 39.9828 -77.8736 273° West 385 443 30,000  Level Cleveland Center
02:39PM 39.9861 -78.0144 272° West 385 443 30,000  Level Cleveland Center
02:40PM 39.9892 -78.1497 272° West 385 443 30,000  Level Cleveland Center
02:41PM 39.9914 -78.2581 272° West 380 437 30,000  Level Cleveland Center
02:42PM 39.9903 -78.4100 270° West 380 437 30,000  Level Cleveland Center
02:43PM 39.9947 -78.5453 272° West 380 437 30,000  Level Cleveland Center
02:44PM 39.9972 -78.6806 271° West 380 437 30,000  Level Cleveland Center
02:45PM 39.9992 -78.8106 271° West 380 437 30,000  Level Cleveland Center
02:46PM 40.0011 -78.9461 271° West 380 437 30,000  Level Cleveland Center
02:47PM 40.0031 -79.0789 271° West 375 432 30,000  Level Cleveland Center
02:48PM 40.0069 -79.2278 272° West 375 432 30,000  Level Cleveland Center
02:49PM 40.0064 -79.3661 270° West 380 437 30,000  Level Cleveland Center
02:50PM 40.0078 -79.5017 271° West 380 437 30,000  Level Cleveland Center
02:51PM 40.0111 -79.6372 272° West 380 437 30,000 -300 Level Cleveland Center
02:52PM 40.0122 -79.7700 271° West 380 437 29,500 -900 Descending Cleveland Center
02:53PM 40.0131 -79.9000 271° West 375 432 28,200 -780 Descending Cleveland Center
02:54PM 40.0136 -80.0275 270° West 365 420 28,000 -120 Descending Cleveland Center
02:55PM 40.0142 -80.1522 270° West 354 407 28,000  Level Cleveland Center
02:56PM 40.0125 -80.2742 269° West 349 402 28,000  Level Cleveland Center
02:57PM 40.0150 -80.3906 272° West 349 402 28,000  Level Cleveland Center
02:58PM 40.0172 -80.5181 271° West 354 407 28,000 -600 Level Cleveland Center
02:59PM 40.0150 -80.6481 269° West 344 396 26,900 -1,800 Descending Cleveland Center
03:00PM 40.0150 -80.7647 270° West 329 379 24,500 -1,500 Descending Cleveland Center
03:01PM 40.0064 -80.8678 264° West 311 358 24,000 -300 Descending Cleveland Center
03:02PM 39.9872 -80.9678 256° West 291 335 24,000 -1,020 Level Cleveland Center
03:04PM 39.9556 -81.1311 256° West 277 319 21,400 -1,320 Descending Indianapolis Center
03:05PM 39.9400 -81.2142 256° West 272 313 20,500 -1,020 Descending Indianapolis Center
03:06PM 39.9175 -81.3292 256° West 273 314 19,400 -1,080 Descending Indianapolis Center
03:07PM 39.8989 -81.4250 256° West 273 314 18,300 -1,200 Descending Indianapolis Center
03:08PM 39.8786 -81.5222 255° West 267 307 17,000 -1,140 Descending Indianapolis Center
03:09PM 39.8611 -81.6114 256° West 254 292 16,000 -1,020 Descending Indianapolis Center
03:10PM 39.8431 -81.7003 255° West 252 290 15,000 -1,020 Descending Indianapolis Center
03:11PM 39.8269 -81.7856 256° West 244 281 14,000 -1,020 Descending Indianapolis Center
03:12PM 39.8100 -81.8711 256° West 243 280 13,000 -1,020 Descending Indianapolis Center
03:13PM 39.7922 -81.9586 255° West 247 284 12,000 -1,200 Descending Indianapolis Center
03:14PM 39.8136 -82.0575 286° West 283 326 10,600 -960 Descending Indianapolis Center
03:16PM 39.8431 -82.1700 289° West 276 318 10,000 -1,020 Descending Indianapolis Center
03:16PM 39.8828 -82.2392 307° West 264 304 8,600 -1,560 Descending Indianapolis Center
03:18PM 39.9258 -82.3200 305° West 250 288 6,900 -1,800 Descending Indianapolis Center
03:19PM 39.9586 -82.3947 300° West 240 276 4,900 -1,440 Descending Indianapolis Center
03:20PM 39.9803 -82.4758 289° West 238 274 4,000 -600 Descending Indianapolis Center
03:20PM 39.9789 -82.5075 267° West 233 268 4,100 -540 Climbing Indianapolis Center
03:21PM 39.9828 -82.5597 276° West 232 267 3,500 -660 Descending Indianapolis Center
03:22PM 39.9881 -82.6439 275° West 231 266 3,000 -360 Descending Indianapolis Center
03:22PM 39.9889 -82.6747 272° West 231 266 3,100  Climbing Indianapolis Center
03:23PM 39.9925 -82.7269 275° West 230 265 3,000 -180 Descending Indianapolis Center